Terminal Aerodrome Forecast
Issued by NWS Paducah, KY

Home | Current Version | Previous Version | Text Only | Print | Product List | Glossary On
Versions: 1 2 3 4 5 6 7 8 9 10 11 12 13 14 15 16
000
FTUS43 KPAH 242332
TAFPAH
TAF
KPAH 242332Z 2500/2524 15007KT P6SM BKN040
     FM250300 14006KT P6SM -SHRA BKN030
     FM250700 16010KT P6SM OVC010
     FM251300 20014G24KT P6SM SCT020 BKN050
     FM252000 24014G22KT P6SM BKN040 PROB30 2520/2524 1SM TSRA
      BKN020CB=

USA.gov is the U.S. government's official web portal to all federal, state and local government web resources and services.